FAP001 SPJC-SPQU
Flight info
| Callsign | FAP001 |
|---|---|
| Flight time | 1h 3m |
| Altitude | 39000 |
| Route | AKSOL UT222 ASUPA |
| Aircraft | B736/M-SDE2E3FGHIRWXY/LB1 |
Departure
| Time | 2026-05-08 04:48 |
|---|---|
| Airport | Jorge Chávez International Airport (SPJC) |
Arrival
| Time | 2026-05-08 05:51 |
|---|---|
| Airport | Rodríguez Ballón International Airport (SPQU) |
| Time | Latitude | Longitude | Altitude | Speed | Heading |
|---|---|---|---|---|---|
| 2026-05-08 04:16 | -12.01100 | -77.11661 | 69 ft | 0 kts | 334° |
| 2026-05-08 04:32 | -12.01106 | -77.11658 | 65 ft | 2 kts | 334° |
| 2026-05-08 04:32 | -12.01121 | -77.11651 | 63 ft | 2 kts | 334° |
| 2026-05-08 04:32 | -12.01136 | -77.11644 | 70 ft | 2 kts | 334° |
| 2026-05-08 04:33 | -12.01150 | -77.11637 | 64 ft | 2 kts | 335° |
| 2026-05-08 04:33 | -12.01165 | -77.11630 | 62 ft | 2 kts | 323° |
| 2026-05-08 04:33 | -12.01173 | -77.11616 | 69 ft | 2 kts | 260° |
| 2026-05-08 04:33 | -12.01173 | -77.11611 | 64 ft | 0 kts | 244° |
| 2026-05-08 04:38 | -12.01175 | -77.11616 | 65 ft | 3 kts | 244° |
| 2026-05-08 04:38 | -12.01189 | -77.11647 | 64 ft | 6 kts | 244° |
| 2026-05-08 04:38 | -12.01202 | -77.11685 | 68 ft | 6 kts | 263° |
| 2026-05-08 04:38 | -12.01184 | -77.11717 | 61 ft | 6 kts | 326° |
| 2026-05-08 04:39 | -12.01145 | -77.11738 | 62 ft | 6 kts | 333° |
| 2026-05-08 04:39 | -12.01107 | -77.11757 | 61 ft | 6 kts | 335° |
| 2026-05-08 04:39 | -12.01068 | -77.11775 | 56 ft | 6 kts | 335° |
| 2026-05-08 04:39 | -12.01031 | -77.11792 | 63 ft | 6 kts | 335° |
| 2026-05-08 04:40 | -12.00994 | -77.11809 | 62 ft | 6 kts | 335° |
| 2026-05-08 04:40 | -12.00958 | -77.11828 | 56 ft | 6 kts | 332° |
| 2026-05-08 04:40 | -12.00924 | -77.11847 | 59 ft | 6 kts | 332° |
| 2026-05-08 04:40 | -12.00892 | -77.11863 | 59 ft | 6 kts | 333° |
| 2026-05-08 04:41 | -12.00857 | -77.11881 | 58 ft | 5 kts | 333° |
| 2026-05-08 04:41 | -12.00824 | -77.11898 | 58 ft | 5 kts | 334° |
| 2026-05-08 04:41 | -12.00791 | -77.11915 | 57 ft | 5 kts | 334° |
| 2026-05-08 04:41 | -12.00758 | -77.11931 | 59 ft | 5 kts | 335° |
| 2026-05-08 04:42 | -12.00725 | -77.11946 | 59 ft | 5 kts | 335° |
| 2026-05-08 04:42 | -12.00695 | -77.11964 | 58 ft | 5 kts | 317° |
| 2026-05-08 04:42 | -12.00677 | -77.11994 | 54 ft | 5 kts | 289° |
| 2026-05-08 04:42 | -12.00680 | -77.12031 | 57 ft | 6 kts | 251° |
| 2026-05-08 04:43 | -12.00698 | -77.12068 | 54 ft | 6 kts | 242° |
| 2026-05-08 04:43 | -12.00732 | -77.12100 | 52 ft | 7 kts | 199° |
| 2026-05-08 04:43 | -12.00780 | -77.12108 | 53 ft | 7 kts | 188° |
| 2026-05-08 04:43 | -12.00827 | -77.12103 | 53 ft | 7 kts | 158° |
| 2026-05-08 04:44 | -12.00838 | -77.12097 | 52 ft | 0 kts | 155° |
| 2026-05-08 04:47 | -12.00875 | -77.12079 | 51 ft | 32 kts | 154° |
| 2026-05-08 04:47 | -12.01357 | -77.11845 | 62 ft | 118 kts | 154° |
| 2026-05-08 04:47 | -12.02314 | -77.11388 | 219 ft | 174 kts | 155° |
| 2026-05-08 04:48 | -12.03495 | -77.10820 | 789 ft | 200 kts | 156° |
| 2026-05-08 04:48 | -12.04781 | -77.10182 | 1426 ft | 218 kts | 154° |
| 2026-05-08 04:48 | -12.06234 | -77.09473 | 1945 ft | 240 kts | 154° |
| 2026-05-08 04:48 | -12.07786 | -77.08697 | 2653 ft | 253 kts | 154° |
| 2026-05-08 04:49 | -12.09414 | -77.07913 | 3316 ft | 274 kts | 155° |
| 2026-05-08 04:49 | -12.11268 | -77.07060 | 3773 ft | 302 kts | 155° |
| 2026-05-08 04:49 | -12.13152 | -77.06111 | 5040 ft | 296 kts | 153° |
| 2026-05-08 04:49 | -12.14946 | -77.05183 | 5812 ft | 289 kts | 153° |
| 2026-05-08 04:50 | -12.16701 | -77.04288 | 6113 ft | 276 kts | 154° |
| 2026-05-08 04:50 | -12.18441 | -77.03415 | 6599 ft | 281 kts | 154° |
| 2026-05-08 04:50 | -12.20201 | -77.02540 | 7692 ft | 279 kts | 154° |
| 2026-05-08 04:50 | -12.21941 | -77.01679 | 8616 ft | 283 kts | 154° |
| 2026-05-08 04:51 | -12.23611 | -77.00739 | 8907 ft | 283 kts | 141° |
| 2026-05-08 04:51 | -12.24933 | -76.99146 | 9364 ft | 291 kts | 120° |
| 2026-05-08 04:51 | -12.25861 | -76.97314 | 10293 ft | 293 kts | 117° |
| 2026-05-08 04:51 | -12.26785 | -76.95376 | 10764 ft | 315 kts | 116° |
| 2026-05-08 04:52 | -12.27766 | -76.93296 | 11344 ft | 328 kts | 116° |
| 2026-05-08 04:52 | -12.28776 | -76.91161 | 12144 ft | 333 kts | 116° |
| 2026-05-08 04:52 | -12.29785 | -76.89039 | 12999 ft | 336 kts | 116° |
| 2026-05-08 04:52 | -12.30813 | -76.86889 | 13801 ft | 340 kts | 116° |
| 2026-05-08 04:53 | -12.31869 | -76.84690 | 14504 ft | 345 kts | 116° |
| 2026-05-08 04:53 | -12.32916 | -76.82514 | 15208 ft | 348 kts | 116° |
| 2026-05-08 04:53 | -12.34007 | -76.80247 | 15932 ft | 352 kts | 116° |
| 2026-05-08 04:53 | -12.35086 | -76.78008 | 16615 ft | 356 kts | 116° |
| 2026-05-08 04:54 | -12.36188 | -76.75719 | 17288 ft | 360 kts | 116° |
| 2026-05-08 04:54 | -12.37292 | -76.73428 | 17950 ft | 364 kts | 116° |
| 2026-05-08 04:54 | -12.38410 | -76.71104 | 18550 ft | 367 kts | 116° |
| 2026-05-08 04:54 | -12.39555 | -76.68727 | 19102 ft | 371 kts | 116° |
| 2026-05-08 04:55 | -12.40693 | -76.66363 | 19645 ft | 374 kts | 116° |
| 2026-05-08 04:55 | -12.41854 | -76.63950 | 20176 ft | 377 kts | 116° |
| 2026-05-08 04:55 | -12.43014 | -76.61544 | 20675 ft | 381 kts | 116° |
| 2026-05-08 04:55 | -12.44197 | -76.59102 | 21186 ft | 384 kts | 116° |
| 2026-05-08 04:56 | -12.45383 | -76.56660 | 21698 ft | 386 kts | 116° |
| 2026-05-08 04:56 | -12.46592 | -76.54167 | 22206 ft | 389 kts | 116° |
| 2026-05-08 04:56 | -12.47782 | -76.51715 | 22673 ft | 391 kts | 116° |
| 2026-05-08 04:56 | -12.49008 | -76.49186 | 23121 ft | 395 kts | 116° |
| 2026-05-08 04:57 | -12.50243 | -76.46635 | 23566 ft | 398 kts | 116° |
| 2026-05-08 04:57 | -12.51463 | -76.44116 | 23922 ft | 401 kts | 116° |
| 2026-05-08 04:57 | -12.52716 | -76.41527 | 24245 ft | 404 kts | 116° |
| 2026-05-08 04:57 | -12.53969 | -76.38935 | 24557 ft | 408 kts | 116° |
| 2026-05-08 04:58 | -12.55237 | -76.36314 | 24889 ft | 410 kts | 116° |
| 2026-05-08 04:58 | -12.56490 | -76.33722 | 25203 ft | 412 kts | 116° |
| 2026-05-08 04:58 | -12.57765 | -76.31084 | 25503 ft | 415 kts | 116° |
| 2026-05-08 04:58 | -12.59031 | -76.28462 | 25797 ft | 418 kts | 115° |
| 2026-05-08 04:59 | -12.60357 | -76.25723 | 26097 ft | 421 kts | 116° |
| 2026-05-08 04:59 | -12.61909 | -76.23195 | 26356 ft | 425 kts | 128° |
| 2026-05-08 04:59 | -12.63222 | -76.21691 | 26519 ft | 427 kts | 135° |
| 2026-05-08 04:59 | -12.66354 | -76.19173 | 26883 ft | 431 kts | 147° |
| 2026-05-08 05:00 | -12.68046 | -76.18083 | 27032 ft | 432 kts | 148° |
| 2026-05-08 05:00 | -12.71462 | -76.15932 | 27355 ft | 436 kts | 148° |
| 2026-05-08 05:00 | -12.73194 | -76.14846 | 27496 ft | 438 kts | 148° |
| 2026-05-08 05:00 | -12.75759 | -76.13228 | 27715 ft | 440 kts | 148° |
| 2026-05-08 05:01 | -12.78352 | -76.11580 | 27934 ft | 443 kts | 147° |
| 2026-05-08 05:01 | -12.81023 | -76.09871 | 28157 ft | 445 kts | 147° |
| 2026-05-08 05:01 | -12.83667 | -76.08173 | 28363 ft | 447 kts | 147° |
| 2026-05-08 05:01 | -12.86292 | -76.06482 | 28573 ft | 449 kts | 147° |
| 2026-05-08 05:02 | -12.88952 | -76.04766 | 28779 ft | 452 kts | 147° |
| 2026-05-08 05:02 | -12.91629 | -76.03038 | 28984 ft | 454 kts | 147° |
| 2026-05-08 05:02 | -12.94285 | -76.01324 | 29167 ft | 456 kts | 147° |
| 2026-05-08 05:02 | -12.96985 | -75.99582 | 29351 ft | 458 kts | 147° |
| 2026-05-08 05:03 | -12.99655 | -75.97859 | 29544 ft | 460 kts | 147° |
| 2026-05-08 05:03 | -13.02389 | -75.96094 | 29703 ft | 462 kts | 147° |
| 2026-05-08 05:03 | -13.05083 | -75.94354 | 29846 ft | 464 kts | 147° |
| 2026-05-08 05:03 | -13.07816 | -75.92590 | 30029 ft | 465 kts | 147° |
| 2026-05-08 05:04 | -13.10556 | -75.90819 | 30199 ft | 466 kts | 147° |
| 2026-05-08 05:04 | -13.13328 | -75.89029 | 30331 ft | 468 kts | 147° |
| 2026-05-08 05:04 | -13.16096 | -75.87240 | 30444 ft | 469 kts | 149° |
| 2026-05-08 05:04 | -13.18850 | -75.85461 | 30486 ft | 472 kts | 148° |
| 2026-05-08 05:05 | -13.21651 | -75.83649 | 30632 ft | 473 kts | 147° |
| 2026-05-08 05:05 | -13.24418 | -75.81857 | 30813 ft | 472 kts | 148° |
| 2026-05-08 05:05 | -13.27213 | -75.80048 | 30974 ft | 472 kts | 148° |
| 2026-05-08 05:05 | -13.29911 | -75.78302 | 31092 ft | 473 kts | 148° |
| 2026-05-08 05:06 | -13.32706 | -75.76379 | 31196 ft | 474 kts | 142° |
| 2026-05-08 05:06 | -13.35201 | -75.74112 | 31264 ft | 476 kts | 134° |
| 2026-05-08 05:06 | -13.37448 | -75.71667 | 31393 ft | 476 kts | 132° |
| 2026-05-08 05:06 | -13.39686 | -75.69156 | 31526 ft | 476 kts | 132° |
| 2026-05-08 05:07 | -13.41931 | -75.66635 | 31635 ft | 478 kts | 132° |
| 2026-05-08 05:07 | -13.44201 | -75.64116 | 31730 ft | 479 kts | 133° |
| 2026-05-08 05:07 | -13.48745 | -75.59145 | 31920 ft | 480 kts | 133° |
| 2026-05-08 05:08 | -13.53355 | -75.54125 | 32111 ft | 482 kts | 133° |
| 2026-05-08 05:08 | -13.57967 | -75.49105 | 32265 ft | 483 kts | 134° |
| 2026-05-08 05:09 | -13.62569 | -75.44103 | 32477 ft | 484 kts | 134° |
| 2026-05-08 05:09 | -13.64900 | -75.41569 | 32633 ft | 483 kts | 134° |
| 2026-05-08 05:09 | -13.67192 | -75.39076 | 32777 ft | 483 kts | 134° |
| 2026-05-08 05:10 | -13.74102 | -75.31550 | 33118 ft | 482 kts | 134° |
| 2026-05-08 05:10 | -13.76399 | -75.29047 | 33257 ft | 482 kts | 134° |
| 2026-05-08 05:11 | -13.78692 | -75.26546 | 33321 ft | 483 kts | 134° |
| 2026-05-08 05:11 | -13.83319 | -75.21500 | 33515 ft | 483 kts | 134° |
| 2026-05-08 05:11 | -13.85627 | -75.18981 | 33677 ft | 482 kts | 135° |
| 2026-05-08 05:12 | -13.87909 | -75.16490 | 33793 ft | 482 kts | 135° |
| 2026-05-08 05:12 | -13.92517 | -75.11457 | 33990 ft | 482 kts | 135° |
| 2026-05-08 05:12 | -13.94824 | -75.08937 | 34111 ft | 482 kts | 135° |
| 2026-05-08 05:13 | -13.97031 | -75.06524 | 34164 ft | 482 kts | 135° |
| 2026-05-08 05:13 | -14.01726 | -75.01391 | 34362 ft | 481 kts | 135° |
| 2026-05-08 05:13 | -14.03992 | -74.98911 | 34497 ft | 480 kts | 135° |
| 2026-05-08 05:14 | -14.06300 | -74.96385 | 34571 ft | 481 kts | 135° |
| 2026-05-08 05:14 | -14.10896 | -74.91354 | 34783 ft | 481 kts | 135° |
| 2026-05-08 05:14 | -14.13192 | -74.88839 | 34903 ft | 480 kts | 135° |
| 2026-05-08 05:15 | -14.15458 | -74.86356 | 34981 ft | 480 kts | 135° |
| 2026-05-08 05:15 | -14.20031 | -74.81344 | 35128 ft | 480 kts | 135° |
| 2026-05-08 05:15 | -14.22318 | -74.78836 | 35231 ft | 480 kts | 135° |
| 2026-05-08 05:16 | -14.24598 | -74.76333 | 35317 ft | 480 kts | 135° |
| 2026-05-08 05:16 | -14.26887 | -74.73821 | 35428 ft | 479 kts | 135° |
| 2026-05-08 05:16 | -14.29158 | -74.71328 | 35511 ft | 479 kts | 135° |
| 2026-05-08 05:17 | -14.33722 | -74.66316 | 35592 ft | 479 kts | 135° |
| 2026-05-08 05:17 | -14.36018 | -74.63794 | 35713 ft | 479 kts | 135° |
| 2026-05-08 05:17 | -14.38292 | -74.61293 | 35795 ft | 478 kts | 134° |
| 2026-05-08 05:18 | -14.42847 | -74.56284 | 36069 ft | 478 kts | 135° |
| 2026-05-08 05:18 | -14.45121 | -74.53782 | 36313 ft | 476 kts | 135° |
| 2026-05-08 05:18 | -14.47369 | -74.51308 | 36552 ft | 477 kts | 135° |
| 2026-05-08 05:18 | -14.49654 | -74.48792 | 36936 ft | 475 kts | 135° |
| 2026-05-08 05:19 | -14.51886 | -74.46333 | 37446 ft | 471 kts | 136° |
| 2026-05-08 05:19 | -14.54123 | -74.43868 | 37947 ft | 466 kts | 136° |
| 2026-05-08 05:19 | -14.56314 | -74.41452 | 38456 ft | 462 kts | 136° |
| 2026-05-08 05:19 | -14.58488 | -74.39054 | 38929 ft | 457 kts | 136° |
| 2026-05-08 05:20 | -14.60668 | -74.36652 | 39097 ft | 460 kts | 136° |
| 2026-05-08 05:20 | -14.65092 | -74.31778 | 39109 ft | 472 kts | 136° |
| 2026-05-08 05:21 | -14.69636 | -74.26763 | 39121 ft | 483 kts | 136° |
| 2026-05-08 05:21 | -14.74255 | -74.21656 | 39107 ft | 486 kts | 136° |
| 2026-05-08 05:22 | -14.78861 | -74.16563 | 39100 ft | 487 kts | 136° |
| 2026-05-08 05:22 | -14.83066 | -74.11028 | 39112 ft | 490 kts | 127° |
| 2026-05-08 05:23 | -14.86912 | -74.05223 | 39085 ft | 491 kts | 126° |
| 2026-05-08 05:23 | -14.90748 | -73.99407 | 39094 ft | 490 kts | 126° |
| 2026-05-08 05:24 | -14.94636 | -73.93590 | 39115 ft | 488 kts | 127° |
| 2026-05-08 05:24 | -14.98511 | -73.87832 | 39096 ft | 488 kts | 127° |
| 2026-05-08 05:25 | -15.02373 | -73.82096 | 39110 ft | 487 kts | 127° |
| 2026-05-08 05:25 | -15.06245 | -73.76337 | 39113 ft | 486 kts | 127° |
| 2026-05-08 05:26 | -15.10098 | -73.70600 | 39136 ft | 485 kts | 127° |
| 2026-05-08 05:26 | -15.13940 | -73.64873 | 39119 ft | 485 kts | 126° |
| 2026-05-08 05:27 | -15.17794 | -73.59125 | 39119 ft | 485 kts | 126° |
| 2026-05-08 05:27 | -15.21339 | -73.53835 | 39104 ft | 484 kts | 126° |
| 2026-05-08 05:28 | -15.25176 | -73.48104 | 39130 ft | 484 kts | 126° |
| 2026-05-08 05:28 | -15.28988 | -73.42407 | 39113 ft | 485 kts | 126° |
| 2026-05-08 05:29 | -15.32850 | -73.36630 | 39113 ft | 486 kts | 126° |
| 2026-05-08 05:29 | -15.36673 | -73.30907 | 39108 ft | 487 kts | 126° |
| 2026-05-08 05:30 | -15.40566 | -73.25076 | 39112 ft | 490 kts | 126° |
| 2026-05-08 05:30 | -15.44471 | -73.19222 | 39093 ft | 492 kts | 126° |
| 2026-05-08 05:31 | -15.48266 | -73.13526 | 38979 ft | 482 kts | 126° |
| 2026-05-08 05:31 | -15.50164 | -73.10677 | 38499 ft | 480 kts | 125° |
| 2026-05-08 05:31 | -15.51399 | -73.08822 | 38104 ft | 481 kts | 126° |
| 2026-05-08 05:31 | -15.53622 | -73.05483 | 37328 ft | 482 kts | 126° |
| 2026-05-08 05:32 | -15.55532 | -73.02615 | 36634 ft | 482 kts | 126° |
| 2026-05-08 05:32 | -15.57440 | -72.99746 | 36137 ft | 480 kts | 126° |
| 2026-05-08 05:32 | -15.59326 | -72.96908 | 35774 ft | 473 kts | 126° |
| 2026-05-08 05:32 | -15.61164 | -72.94141 | 35403 ft | 467 kts | 126° |
| 2026-05-08 05:33 | -15.63009 | -72.91364 | 35029 ft | 462 kts | 126° |
| 2026-05-08 05:33 | -15.64813 | -72.88648 | 34618 ft | 459 kts | 126° |
| 2026-05-08 05:33 | -15.66619 | -72.85928 | 34035 ft | 460 kts | 126° |
| 2026-05-08 05:33 | -15.68456 | -72.83161 | 33345 ft | 461 kts | 126° |
| 2026-05-08 05:34 | -15.70258 | -72.80445 | 32655 ft | 454 kts | 126° |
| 2026-05-08 05:34 | -15.72021 | -72.77784 | 31999 ft | 447 kts | 126° |
| 2026-05-08 05:34 | -15.73786 | -72.75121 | 31334 ft | 441 kts | 127° |
| 2026-05-08 05:34 | -15.75497 | -72.72539 | 30707 ft | 434 kts | 127° |
| 2026-05-08 05:35 | -15.77208 | -72.69956 | 30067 ft | 428 kts | 127° |
| 2026-05-08 05:35 | -15.78860 | -72.67461 | 29351 ft | 421 kts | 127° |
| 2026-05-08 05:35 | -15.80527 | -72.64944 | 28640 ft | 415 kts | 127° |
| 2026-05-08 05:35 | -15.82155 | -72.62485 | 27956 ft | 409 kts | 127° |
| 2026-05-08 05:36 | -15.83747 | -72.60078 | 27287 ft | 404 kts | 127° |
| 2026-05-08 05:36 | -15.85321 | -72.57700 | 26630 ft | 400 kts | 127° |
| 2026-05-08 05:36 | -15.86897 | -72.55316 | 25982 ft | 395 kts | 127° |
| 2026-05-08 05:36 | -15.88439 | -72.52985 | 25358 ft | 390 kts | 127° |
| 2026-05-08 05:37 | -15.89972 | -72.50663 | 24740 ft | 386 kts | 127° |
| 2026-05-08 05:37 | -15.91478 | -72.48384 | 24146 ft | 382 kts | 126° |
| 2026-05-08 05:37 | -15.92980 | -72.46107 | 23532 ft | 378 kts | 127° |
| 2026-05-08 05:37 | -15.94440 | -72.43894 | 22860 ft | 374 kts | 126° |
| 2026-05-08 05:38 | -15.95924 | -72.41645 | 22167 ft | 371 kts | 126° |
| 2026-05-08 05:38 | -15.97365 | -72.39461 | 21523 ft | 368 kts | 126° |
| 2026-05-08 05:38 | -15.98816 | -72.37259 | 20859 ft | 364 kts | 126° |
| 2026-05-08 05:38 | -16.00225 | -72.35123 | 20232 ft | 361 kts | 126° |
| 2026-05-08 05:39 | -16.01638 | -72.32978 | 19603 ft | 357 kts | 125° |
| 2026-05-08 05:39 | -16.03039 | -72.30849 | 18999 ft | 354 kts | 125° |
| 2026-05-08 05:39 | -16.04433 | -72.28732 | 18395 ft | 350 kts | 125° |
| 2026-05-08 05:39 | -16.05799 | -72.26656 | 17719 ft | 347 kts | 125° |
| 2026-05-08 05:40 | -16.07145 | -72.24612 | 17058 ft | 344 kts | 125° |
| 2026-05-08 05:40 | -16.08491 | -72.22566 | 16399 ft | 340 kts | 125° |
| 2026-05-08 05:40 | -16.09816 | -72.20552 | 15756 ft | 336 kts | 125° |
| 2026-05-08 05:40 | -16.11138 | -72.18544 | 15122 ft | 332 kts | 125° |
| 2026-05-08 05:41 | -16.12396 | -72.16631 | 14525 ft | 328 kts | 125° |
| 2026-05-08 05:41 | -16.13679 | -72.14680 | 13916 ft | 325 kts | 124° |
| 2026-05-08 05:41 | -16.14974 | -72.12710 | 13242 ft | 321 kts | 124° |
| 2026-05-08 05:41 | -16.16202 | -72.10842 | 12935 ft | 307 kts | 124° |
| 2026-05-08 05:42 | -16.17384 | -72.09041 | 12798 ft | 299 kts | 124° |
| 2026-05-08 05:42 | -16.18168 | -72.07849 | 12741 ft | 299 kts | 124° |
| 2026-05-08 05:42 | -16.19731 | -72.05470 | 12367 ft | 301 kts | 124° |
| 2026-05-08 05:42 | -16.20902 | -72.03688 | 12011 ft | 300 kts | 124° |
| 2026-05-08 05:43 | -16.22076 | -72.01901 | 11659 ft | 298 kts | 124° |
| 2026-05-08 05:43 | -16.22853 | -72.00716 | 11431 ft | 296 kts | 124° |
| 2026-05-08 05:43 | -16.24369 | -71.98404 | 10997 ft | 285 kts | 124° |
| 2026-05-08 05:43 | -16.25125 | -71.97251 | 10765 ft | 285 kts | 123° |
| 2026-05-08 05:44 | -16.26241 | -71.95548 | 10407 ft | 289 kts | 123° |
| 2026-05-08 05:44 | -16.27386 | -71.93800 | 10070 ft | 292 kts | 123° |
| 2026-05-08 05:44 | -16.28513 | -71.92078 | 9770 ft | 292 kts | 123° |
| 2026-05-08 05:44 | -16.29654 | -71.90337 | 9747 ft | 288 kts | 123° |
| 2026-05-08 05:45 | -16.30785 | -71.88610 | 9763 ft | 288 kts | 123° |
| 2026-05-08 05:45 | -16.31905 | -71.86888 | 9765 ft | 284 kts | 121° |
| 2026-05-08 05:45 | -16.32528 | -71.85078 | 9781 ft | 250 kts | 99° |
| 2026-05-08 05:45 | -16.32718 | -71.83391 | 9784 ft | 219 kts | 93° |
| 2026-05-08 05:46 | -16.32798 | -71.81870 | 9799 ft | 203 kts | 91° |
| 2026-05-08 05:46 | -16.32864 | -71.80427 | 9853 ft | 199 kts | 91° |
| 2026-05-08 05:46 | -16.32933 | -71.79014 | 9858 ft | 190 kts | 92° |
| 2026-05-08 05:46 | -16.33002 | -71.77663 | 9884 ft | 183 kts | 92° |
| 2026-05-08 05:47 | -16.33066 | -71.76384 | 9898 ft | 180 kts | 92° |
| 2026-05-08 05:47 | -16.33133 | -71.75077 | 9897 ft | 173 kts | 92° |
| 2026-05-08 05:47 | -16.33195 | -71.73838 | 9925 ft | 170 kts | 91° |
| 2026-05-08 05:47 | -16.33257 | -71.72631 | 9919 ft | 163 kts | 92° |
| 2026-05-08 05:48 | -16.33315 | -71.71485 | 9926 ft | 159 kts | 91° |
| 2026-05-08 05:48 | -16.33375 | -71.70324 | 9953 ft | 159 kts | 91° |
| 2026-05-08 05:48 | -16.33432 | -71.69207 | 9996 ft | 153 kts | 91° |
| 2026-05-08 05:48 | -16.33488 | -71.68106 | 9984 ft | 150 kts | 91° |
| 2026-05-08 05:49 | -16.33545 | -71.66992 | 9927 ft | 157 kts | 91° |
| 2026-05-08 05:49 | -16.33602 | -71.65874 | 9761 ft | 154 kts | 91° |
| 2026-05-08 05:49 | -16.33661 | -71.64769 | 9474 ft | 150 kts | 90° |
| 2026-05-08 05:49 | -16.33750 | -71.63678 | 8942 ft | 153 kts | 97° |
| 2026-05-08 05:50 | -16.33831 | -71.62603 | 8631 ft | 145 kts | 88° |
| 2026-05-08 05:50 | -16.33823 | -71.61567 | 8677 ft | 145 kts | 89° |
| 2026-05-08 05:50 | -16.33890 | -71.60495 | 8721 ft | 154 kts | 92° |
| 2026-05-08 05:50 | -16.33948 | -71.59358 | 8454 ft | 153 kts | 90° |
| 2026-05-08 05:51 | -16.33995 | -71.58303 | 8331 ft | 149 kts | 92° |
| 2026-05-08 05:51 | -16.34042 | -71.57242 | 8360 ft | 140 kts | 93° |
| 2026-05-08 05:51 | -16.34101 | -71.56276 | 8406 ft | 119 kts | 94° |
| 2026-05-08 05:51 | -16.34129 | -71.55763 | 8412 ft | 8 kts | 96° |
| 2026-05-08 05:52 | -16.34155 | -71.55731 | 8412 ft | 1 kts | 185° |
| 2026-05-08 05:52 | -16.34163 | -71.55735 | 8412 ft | 2 kts | 204° |
| 2026-05-08 05:52 | -16.34176 | -71.55746 | 8412 ft | 3 kts | 222° |
| 2026-05-08 05:52 | -16.34188 | -71.55760 | 8413 ft | 3 kts | 231° |
| 2026-05-08 05:53 | -16.34199 | -71.55775 | 8411 ft | 3 kts | 238° |
| 2026-05-08 05:53 | -16.34214 | -71.55803 | 8408 ft | 7 kts | 240° |
| 2026-05-08 05:53 | -16.34249 | -71.55869 | 8400 ft | 14 kts | 242° |
| 2026-05-08 05:53 | -16.34302 | -71.55975 | 8389 ft | 12 kts | 236° |
| 2026-05-08 05:54 | -16.34360 | -71.56045 | 8382 ft | 12 kts | 230° |
| 2026-05-08 05:54 | -16.34383 | -71.56112 | 8375 ft | 10 kts | 269° |
| 2026-05-08 05:54 | -16.34378 | -71.56205 | 8368 ft | 16 kts | 274° |
| 2026-05-08 05:54 | -16.34372 | -71.56298 | 8360 ft | 10 kts | 274° |
| 2026-05-08 05:55 | -16.34368 | -71.56391 | 8351 ft | 16 kts | 272° |
| 2026-05-08 05:55 | -16.34363 | -71.56499 | 8344 ft | 16 kts | 272° |
| 2026-05-08 05:55 | -16.34360 | -71.56560 | 8344 ft | 6 kts | 275° |
| 2026-05-08 05:55 | -16.34354 | -71.56635 | 8344 ft | 11 kts | 274° |
| 2026-05-08 05:56 | -16.34350 | -71.56691 | 8344 ft | 6 kts | 274° |
| 2026-05-08 05:56 | -16.34348 | -71.56733 | 8344 ft | 6 kts | 272° |
| 2026-05-08 05:56 | -16.34347 | -71.56775 | 8343 ft | 6 kts | 271° |
| 2026-05-08 05:56 | -16.34349 | -71.56815 | 8343 ft | 6 kts | 254° |
| 2026-05-08 05:57 | -16.34357 | -71.56833 | 8348 ft | 0 kts | 233° |
| 2026-05-08 05:57 | -16.34364 | -71.56836 | 8346 ft | 2 kts | 202° |
| 2026-05-08 05:57 | -16.34378 | -71.56843 | 8347 ft | 1 kts | 210° |
| 2026-05-08 05:57 | -16.34385 | -71.56848 | 8346 ft | 1 kts | 212° |
| 2026-05-08 05:58 | -16.34387 | -71.56849 | 8346 ft | 0 kts | 212° |